sensor_id;sensor_type;location;lat;lon;timestamp;temperature;humidity
71942;DHT22;59997;53.300;-6.260;2024-02-15T00:02:20;12.78;88.48
71942;DHT22;59997;53.300;-6.260;2024-02-15T00:04:46;12.81;88.33
71942;DHT22;59997;53.300;-6.260;2024-02-15T00:07:11;12.74;88.55
71942;DHT22;59997;53.300;-6.260;2024-02-15T00:09:37;12.67;88.64
71942;DHT22;59997;53.300;-6.260;2024-02-15T00:12:02;12.71;88.71
71942;DHT22;59997;53.300;-6.260;2024-02-15T00:14:28;12.78;88.59
71942;DHT22;59997;53.300;-6.260;2024-02-15T00:16:54;12.82;88.55
71942;DHT22;59997;53.300;-6.260;2024-02-15T00:19:20;12.84;88.49
71942;DHT22;59997;53.300;-6.260;2024-02-15T00:21:46;12.80;88.61
71942;DHT22;59997;53.300;-6.260;2024-02-15T00:24:12;12.81;88.64
71942;DHT22;59997;53.300;-6.260;2024-02-15T00:26:40;12.84;88.59
71942;DHT22;59997;53.300;-6.260;2024-02-15T00:29:06;12.87;88.51
71942;DHT22;59997;53.300;-6.260;2024-02-15T00:31:31;12.89;88.44
71942;DHT22;59997;53.300;-6.260;2024-02-15T00:33:57;12.87;88.71
71942;DHT22;59997;53.300;-6.260;2024-02-15T00:36:24;12.88;88.46
71942;DHT22;59997;53.300;-6.260;2024-02-15T00:38:50;12.96;88.43
71942;DHT22;59997;53.300;-6.260;2024-02-15T00:41:17;12.98;88.41
71942;DHT22;59997;53.300;-6.260;2024-02-15T00:43:43;12.95;88.47
71942;DHT22;59997;53.300;-6.260;2024-02-15T00:46:08;12.96;88.49
71942;DHT22;59997;53.300;-6.260;2024-02-15T00:48:34;12.93;88.58
71942;DHT22;59997;53.300;-6.260;2024-02-15T00:50:59;12.99;88.44
71942;DHT22;59997;53.300;-6.260;2024-02-15T00:53:25;13.00;88.42
71942;DHT22;59997;53.300;-6.260;2024-02-15T00:55:51;12.96;88.34
71942;DHT22;59997;53.300;-6.260;2024-02-15T00:58:17;12.89;88.48
71942;DHT22;59997;53.300;-6.260;2024-02-15T01:00:42;12.85;88.47
71942;DHT22;59997;53.300;-6.260;2024-02-15T01:03:08;12.89;88.30
71942;DHT22;59997;53.300;-6.260;2024-02-15T01:05:33;12.82;88.48
71942;DHT22;59997;53.300;-6.260;2024-02-15T01:08:00;12.81;88.41
71942;DHT22;59997;53.300;-6.260;2024-02-15T01:10:25;12.96;88.08
71942;DHT22;59997;53.300;-6.260;2024-02-15T01:12:52;12.96;88.06
71942;DHT22;59997;53.300;-6.260;2024-02-15T01:15:17;12.95;88.15
71942;DHT22;59997;53.300;-6.260;2024-02-15T01:17:45;13.02;87.98
71942;DHT22;59997;53.300;-6.260;2024-02-15T01:20:11;12.96;88.17
71942;DHT22;59997;53.300;-6.260;2024-02-15T01:22:37;12.91;88.18
71942;DHT22;59997;53.300;-6.260;2024-02-15T01:25:02;12.95;88.27
71942;DHT22;59997;53.300;-6.260;2024-02-15T01:27:28;12.96;88.21
71942;DHT22;59997;53.300;-6.260;2024-02-15T01:29:57;13.00;88.25
71942;DHT22;59997;53.300;-6.260;2024-02-15T01:32:22;12.99;88.27
71942;DHT22;59997;53.300;-6.260;2024-02-15T01:34:48;12.93;88.37
71942;DHT22;59997;53.300;-6.260;2024-02-15T01:37:16;13.09;88.27
71942;DHT22;59997;53.300;-6.260;2024-02-15T01:39:42;13.03;88.46
71942;DHT22;59997;53.300;-6.260;2024-02-15T01:42:07;13.13;88.21
71942;DHT22;59997;53.300;-6.260;2024-02-15T01:44:33;13.13;88.27
71942;DHT22;59997;53.300;-6.260;2024-02-15T01:46:59;13.13;88.33
71942;DHT22;59997;53.300;-6.260;2024-02-15T01:49:26;13.12;88.34
71942;DHT22;59997;53.300;-6.260;2024-02-15T01:51:54;13.12;88.32
71942;DHT22;59997;53.300;-6.260;2024-02-15T01:54:22;13.09;88.49
71942;DHT22;59997;53.300;-6.260;2024-02-15T01:56:48;13.03;88.47
71942;DHT22;59997;53.300;-6.260;2024-02-15T01:59:17;12.96;88.64
71942;DHT22;59997;53.300;-6.260;2024-02-15T02:01:44;13.02;88.58
71942;DHT22;59997;53.300;-6.260;2024-02-15T02:04:10;12.98;88.66
71942;DHT22;59997;53.300;-6.260;2024-02-15T02:06:39;12.98;88.64
71942;DHT22;59997;53.300;-6.260;2024-02-15T02:09:05;12.98;88.60
71942;DHT22;59997;53.300;-6.260;2024-02-15T02:11:30;12.92;88.67
71942;DHT22;59997;53.300;-6.260;2024-02-15T02:13:56;12.92;88.69
71942;DHT22;59997;53.300;-6.260;2024-02-15T02:16:29;12.89;88.61
71942;DHT22;59997;53.300;-6.260;2024-02-15T02:18:55;12.85;88.71
71942;DHT22;59997;53.300;-6.260;2024-02-15T02:21:25;12.77;88.93
71942;DHT22;59997;53.300;-6.260;2024-02-15T02:23:58;12.71;88.97
71942;DHT22;59997;53.300;-6.260;2024-02-15T02:26:24;12.65;88.98
71942;DHT22;59997;53.300;-6.260;2024-02-15T02:28:50;12.57;89.11
71942;DHT22;59997;53.300;-6.260;2024-02-15T02:31:19;12.46;89.23
71942;DHT22;59997;53.300;-6.260;2024-02-15T02:33:52;12.43;89.55
71942;DHT22;59997;53.300;-6.260;2024-02-15T02:36:20;12.44;89.46
71942;DHT22;59997;53.300;-6.260;2024-02-15T02:38:46;12.37;89.66
71942;DHT22;59997;53.300;-6.260;2024-02-15T02:41:15;12.34;89.88
71942;DHT22;59997;53.300;-6.260;2024-02-15T02:43:41;12.23;90.10
71942;DHT22;59997;53.300;-6.260;2024-02-15T02:46:10;12.23;90.23
71942;DHT22;59997;53.300;-6.260;2024-02-15T02:48:36;12.19;90.24
71942;DHT22;59997;53.300;-6.260;2024-02-15T02:51:02;12.19;90.24
71942;DHT22;59997;53.300;-6.260;2024-02-15T02:53:28;12.15;90.36
71942;DHT22;59997;53.300;-6.260;2024-02-15T02:55:55;12.21;90.41
71942;DHT22;59997;53.300;-6.260;2024-02-15T02:58:22;12.08;90.48
71942;DHT22;59997;53.300;-6.260;2024-02-15T03:00:48;12.11;90.64
71942;DHT22;59997;53.300;-6.260;2024-02-15T03:03:15;12.01;90.98
71942;DHT22;59997;53.300;-6.260;2024-02-15T03:05:41;12.01;91.04
71942;DHT22;59997;53.300;-6.260;2024-02-15T03:08:08;11.84;91.12
71942;DHT22;59997;53.300;-6.260;2024-02-15T03:10:34;11.88;91.18
71942;DHT22;59997;53.300;-6.260;2024-02-15T03:13:00;11.77;91.34
71942;DHT22;59997;53.300;-6.260;2024-02-15T03:15:25;11.70;91.52
71942;DHT22;59997;53.300;-6.260;2024-02-15T03:17:51;11.70;91.71
71942;DHT22;59997;53.300;-6.260;2024-02-15T03:20:17;11.60;91.77
71942;DHT22;59997;53.300;-6.260;2024-02-15T03:22:53;11.60;91.96
71942;DHT22;59997;53.300;-6.260;2024-02-15T03:25:19;11.69;92.06
71942;DHT22;59997;53.300;-6.260;2024-02-15T03:27:45;11.63;92.18
71942;DHT22;59997;53.300;-6.260;2024-02-15T03:30:11;11.60;92.20
71942;DHT22;59997;53.300;-6.260;2024-02-15T03:32:37;11.57;92.34
71942;DHT22;59997;53.300;-6.260;2024-02-15T03:35:02;11.53;92.35
71942;DHT22;59997;53.300;-6.260;2024-02-15T03:37:28;11.50;92.38
71942;DHT22;59997;53.300;-6.260;2024-02-15T03:39:54;11.50;92.48
71942;DHT22;59997;53.300;-6.260;2024-02-15T03:42:20;11.52;92.55
71942;DHT22;59997;53.300;-6.260;2024-02-15T03:44:46;11.52;92.58
71942;DHT22;59997;53.300;-6.260;2024-02-15T03:47:13;11.43;92.62
71942;DHT22;59997;53.300;-6.260;2024-02-15T03:49:42;11.44;92.61
71942;DHT22;59997;53.300;-6.260;2024-02-15T03:52:08;11.46;92.67
71942;DHT22;59997;53.300;-6.260;2024-02-15T03:54:36;11.54;92.71
71942;DHT22;59997;53.300;-6.260;2024-02-15T03:57:01;11.52;92.76
71942;DHT22;59997;53.300;-6.260;2024-02-15T03:59:27;11.53;92.71
71942;DHT22;59997;53.300;-6.260;2024-02-15T04:01:53;11.49;92.77
71942;DHT22;59997;53.300;-6.260;2024-02-15T04:04:19;11.43;92.76
71942;DHT22;59997;53.300;-6.260;2024-02-15T04:06:48;11.39;92.79
71942;DHT22;59997;53.300;-6.260;2024-02-15T04:09:13;11.33;92.84
71942;DHT22;59997;53.300;-6.260;2024-02-15T04:11:39;11.33;92.93
71942;DHT22;59997;53.300;-6.260;2024-02-15T04:14:05;11.30;92.96
71942;DHT22;59997;53.300;-6.260;2024-02-15T04:16:31;11.28;92.95
71942;DHT22;59997;53.300;-6.260;2024-02-15T04:18:58;11.30;92.95
71942;DHT22;59997;53.300;-6.260;2024-02-15T04:21:24;11.28;93.03
71942;DHT22;59997;53.300;-6.260;2024-02-15T04:23:50;11.36;93.03
71942;DHT22;59997;53.300;-6.260;2024-02-15T04:26:17;11.32;93.03
71942;DHT22;59997;53.300;-6.260;2024-02-15T04:28:45;11.30;93.06
71942;DHT22;59997;53.300;-6.260;2024-02-15T04:31:13;11.26;93.08
71942;DHT22;59997;53.300;-6.260;2024-02-15T04:33:40;11.28;93.10
71942;DHT22;59997;53.300;-6.260;2024-02-15T04:36:06;11.32;93.04
71942;DHT22;59997;53.300;-6.260;2024-02-15T04:38:32;11.43;92.96
71942;DHT22;59997;53.300;-6.260;2024-02-15T04:41:01;11.47;92.92
71942;DHT22;59997;53.300;-6.260;2024-02-15T04:43:29;11.49;92.78
71942;DHT22;59997;53.300;-6.260;2024-02-15T04:45:54;11.43;92.78
71942;DHT22;59997;53.300;-6.260;2024-02-15T04:48:20;11.43;92.79
71942;DHT22;59997;53.300;-6.260;2024-02-15T04:50:46;11.43;92.77
71942;DHT22;59997;53.300;-6.260;2024-02-15T04:53:12;11.40;92.79
71942;DHT22;59997;53.300;-6.260;2024-02-15T04:55:37;11.37;92.81
71942;DHT22;59997;53.300;-6.260;2024-02-15T04:58:03;11.35;92.85
71942;DHT22;59997;53.300;-6.260;2024-02-15T05:00:29;11.33;92.88
71942;DHT22;59997;53.300;-6.260;2024-02-15T05:02:55;11.32;92.89
71942;DHT22;59997;53.300;-6.260;2024-02-15T05:05:21;11.32;92.99
71942;DHT22;59997;53.300;-6.260;2024-02-15T05:07:47;11.28;92.98
71942;DHT22;59997;53.300;-6.260;2024-02-15T05:10:14;11.25;93.08
71942;DHT22;59997;53.300;-6.260;2024-02-15T05:12:41;11.21;93.12
71942;DHT22;59997;53.300;-6.260;2024-02-15T05:15:08;11.29;93.13
71942;DHT22;59997;53.300;-6.260;2024-02-15T05:17:38;11.30;93.17
71942;DHT22;59997;53.300;-6.260;2024-02-15T05:20:07;11.23;93.20
71942;DHT22;59997;53.300;-6.260;2024-02-15T05:22:36;11.22;93.26
71942;DHT22;59997;53.300;-6.260;2024-02-15T05:25:04;11.18;93.24
71942;DHT22;59997;53.300;-6.260;2024-02-15T05:27:31;11.16;93.32
71942;DHT22;59997;53.300;-6.260;2024-02-15T05:29:56;11.18;93.34
71942;DHT22;59997;53.300;-6.260;2024-02-15T05:32:22;11.16;93.41
71942;DHT22;59997;53.300;-6.260;2024-02-15T05:34:48;11.16;93.42
71942;DHT22;59997;53.300;-6.260;2024-02-15T05:37:16;11.23;93.43
71942;DHT22;59997;53.300;-6.260;2024-02-15T05:39:42;11.22;93.40
71942;DHT22;59997;53.300;-6.260;2024-02-15T05:42:07;11.14;93.36
71942;DHT22;59997;53.300;-6.260;2024-02-15T05:44:34;11.04;93.44
71942;DHT22;59997;53.300;-6.260;2024-02-15T05:47:00;11.02;93.40
71942;DHT22;59997;53.300;-6.260;2024-02-15T05:49:25;11.01;93.44
71942;DHT22;59997;53.300;-6.260;2024-02-15T05:51:51;11.08;93.33
71942;DHT22;59997;53.300;-6.260;2024-02-15T05:54:19;10.98;93.31
71942;DHT22;59997;53.300;-6.260;2024-02-15T05:56:45;10.97;93.32
71942;DHT22;59997;53.300;-6.260;2024-02-15T05:59:16;10.91;93.34
71942;DHT22;59997;53.300;-6.260;2024-02-15T06:01:42;11.07;93.39
71942;DHT22;59997;53.300;-6.260;2024-02-15T06:04:08;11.05;93.36
71942;DHT22;59997;53.300;-6.260;2024-02-15T06:06:36;11.08;93.36
71942;DHT22;59997;53.300;-6.260;2024-02-15T06:09:03;11.11;93.36
71942;DHT22;59997;53.300;-6.260;2024-02-15T06:11:30;11.12;93.37
71942;DHT22;59997;53.300;-6.260;2024-02-15T06:13:55;11.11;93.31
71942;DHT22;59997;53.300;-6.260;2024-02-15T06:16:21;11.10;93.26
71942;DHT22;59997;53.300;-6.260;2024-02-15T06:18:47;11.08;93.27
71942;DHT22;59997;53.300;-6.260;2024-02-15T06:21:13;10.95;93.28
71942;DHT22;59997;53.300;-6.260;2024-02-15T06:23:38;10.91;93.28
71942;DHT22;59997;53.300;-6.260;2024-02-15T06:26:04;10.88;93.35
71942;DHT22;59997;53.300;-6.260;2024-02-15T06:28:30;10.85;93.37
71942;DHT22;59997;53.300;-6.260;2024-02-15T06:31:14;10.93;93.42
71942;DHT22;59997;53.300;-6.260;2024-02-15T06:33:59;10.84;93.46
71942;DHT22;59997;53.300;-6.260;2024-02-15T06:36:47;10.78;93.50
71942;DHT22;59997;53.300;-6.260;2024-02-15T06:39:32;10.76;93.50
71942;DHT22;59997;53.300;-6.260;2024-02-15T06:42:07;10.77;93.50
71942;DHT22;59997;53.300;-6.260;2024-02-15T06:44:32;10.78;93.56
71942;DHT22;59997;53.300;-6.260;2024-02-15T06:46:58;10.91;93.61
71942;DHT22;59997;53.300;-6.260;2024-02-15T06:49:25;10.95;93.58
71942;DHT22;59997;53.300;-6.260;2024-02-15T06:51:51;11.12;93.59
71942;DHT22;59997;53.300;-6.260;2024-02-15T06:54:16;11.07;93.45
71942;DHT22;59997;53.300;-6.260;2024-02-15T06:56:46;10.97;93.46
71942;DHT22;59997;53.300;-6.260;2024-02-15T06:59:12;10.98;93.51
71942;DHT22;59997;53.300;-6.260;2024-02-15T07:01:43;10.94;93.54
71942;DHT22;59997;53.300;-6.260;2024-02-15T07:04:09;10.80;93.53
71942;DHT22;59997;53.300;-6.260;2024-02-15T07:06:38;10.71;93.53
71942;DHT22;59997;53.300;-6.260;2024-02-15T07:09:07;10.74;93.62
71942;DHT22;59997;53.300;-6.260;2024-02-15T07:11:33;10.76;93.67
71942;DHT22;59997;53.300;-6.260;2024-02-15T07:14:00;10.76;93.70
71942;DHT22;59997;53.300;-6.260;2024-02-15T07:16:26;10.71;93.69
71942;DHT22;59997;53.300;-6.260;2024-02-15T07:18:52;10.74;93.69
71942;DHT22;59997;53.300;-6.260;2024-02-15T07:21:18;10.81;93.71
71942;DHT22;59997;53.300;-6.260;2024-02-15T07:23:46;10.81;93.74
71942;DHT22;59997;53.300;-6.260;2024-02-15T07:26:12;10.90;93.75
71942;DHT22;59997;53.300;-6.260;2024-02-15T07:28:37;10.81;93.70
71942;DHT22;59997;53.300;-6.260;2024-02-15T07:31:03;10.84;93.76
71942;DHT22;59997;53.300;-6.260;2024-02-15T07:33:29;10.81;93.82
71942;DHT22;59997;53.300;-6.260;2024-02-15T07:35:55;10.97;93.80
71942;DHT22;59997;53.300;-6.260;2024-02-15T07:38:22;10.97;93.80
71942;DHT22;59997;53.300;-6.260;2024-02-15T07:40:48;10.95;93.77
71942;DHT22;59997;53.300;-6.260;2024-02-15T07:43:14;10.95;93.78
71942;DHT22;59997;53.300;-6.260;2024-02-15T07:45:40;10.93;93.78
71942;DHT22;59997;53.300;-6.260;2024-02-15T07:48:06;10.95;93.76
71942;DHT22;59997;53.300;-6.260;2024-02-15T07:50:32;10.91;93.77
71942;DHT22;59997;53.300;-6.260;2024-02-15T07:52:57;10.95;93.78
71942;DHT22;59997;53.300;-6.260;2024-02-15T07:55:23;11.01;93.83
71942;DHT22;59997;53.300;-6.260;2024-02-15T07:57:50;11.16;93.84
71942;DHT22;59997;53.300;-6.260;2024-02-15T08:00:16;11.11;93.73
71942;DHT22;59997;53.300;-6.260;2024-02-15T08:02:45;11.10;93.72
71942;DHT22;59997;53.300;-6.260;2024-02-15T08:05:12;11.11;93.76
71942;DHT22;59997;53.300;-6.260;2024-02-15T08:07:42;11.12;93.82
71942;DHT22;59997;53.300;-6.260;2024-02-15T08:10:09;11.15;93.80
71942;DHT22;59997;53.300;-6.260;2024-02-15T08:12:41;11.10;93.80
71942;DHT22;59997;53.300;-6.260;2024-02-15T08:15:07;11.08;93.83
71942;DHT22;59997;53.300;-6.260;2024-02-15T08:17:43;11.18;93.85
71942;DHT22;59997;53.300;-6.260;2024-02-15T08:20:11;11.18;93.85
71942;DHT22;59997;53.300;-6.260;2024-02-15T08:22:38;11.40;93.80
71942;DHT22;59997;53.300;-6.260;2024-02-15T08:25:09;11.46;93.62
71942;DHT22;59997;53.300;-6.260;2024-02-15T08:27:39;11.43;93.60
71942;DHT22;59997;53.300;-6.260;2024-02-15T08:30:13;11.39;93.59
71942;DHT22;59997;53.300;-6.260;2024-02-15T08:32:39;11.35;93.61
71942;DHT22;59997;53.300;-6.260;2024-02-15T08:35:07;11.30;93.61
71942;DHT22;59997;53.300;-6.260;2024-02-15T08:37:36;11.35;93.61
71942;DHT22;59997;53.300;-6.260;2024-02-15T08:40:07;11.54;93.55
71942;DHT22;59997;53.300;-6.260;2024-02-15T08:42:42;11.59;93.33
71942;DHT22;59997;53.300;-6.260;2024-02-15T08:45:08;11.47;93.29
71942;DHT22;59997;53.300;-6.260;2024-02-15T08:47:38;11.49;93.35
71942;DHT22;59997;53.300;-6.260;2024-02-15T08:50:04;11.54;93.35
71942;DHT22;59997;53.300;-6.260;2024-02-15T08:52:30;11.52;93.36
71942;DHT22;59997;53.300;-6.260;2024-02-15T08:54:56;11.52;93.39
71942;DHT22;59997;53.300;-6.260;2024-02-15T08:57:23;11.66;93.30
71942;DHT22;59997;53.300;-6.260;2024-02-15T08:59:49;11.66;93.21
71942;DHT22;59997;53.300;-6.260;2024-02-15T09:02:17;11.66;93.24
71942;DHT22;59997;53.300;-6.260;2024-02-15T09:04:43;11.66;93.19
71942;DHT22;59997;53.300;-6.260;2024-02-15T09:07:08;11.70;93.19
71942;DHT22;59997;53.300;-6.260;2024-02-15T09:09:35;11.77;93.16
71942;DHT22;59997;53.300;-6.260;2024-02-15T09:12:02;11.77;93.12
71942;DHT22;59997;53.300;-6.260;2024-02-15T09:14:34;11.80;93.10
71942;DHT22;59997;53.300;-6.260;2024-02-15T09:17:02;11.88;93.17
71942;DHT22;59997;53.300;-6.260;2024-02-15T09:19:32;12.01;93.11
71942;DHT22;59997;53.300;-6.260;2024-02-15T09:21:58;12.08;92.92
71942;DHT22;59997;53.300;-6.260;2024-02-15T09:24:23;12.13;92.63
71942;DHT22;59997;53.300;-6.260;2024-02-15T09:26:50;12.22;92.54
71942;DHT22;59997;53.300;-6.260;2024-02-15T09:29:18;12.33;92.27
71942;DHT22;59997;53.300;-6.260;2024-02-15T09:31:47;12.41;92.18
71942;DHT22;59997;53.300;-6.260;2024-02-15T09:34:12;12.47;92.23
71942;DHT22;59997;53.300;-6.260;2024-02-15T09:36:38;12.49;91.87
71942;DHT22;59997;53.300;-6.260;2024-02-15T09:39:04;12.53;91.93
71942;DHT22;59997;53.300;-6.260;2024-02-15T09:41:30;12.54;92.01
71942;DHT22;59997;53.300;-6.260;2024-02-15T09:43:57;12.51;91.78
71942;DHT22;59997;53.300;-6.260;2024-02-15T09:46:23;12.57;91.54
71942;DHT22;59997;53.300;-6.260;2024-02-15T09:48:50;12.57;91.17
71942;DHT22;59997;53.300;-6.260;2024-02-15T09:51:18;12.65;90.98
71942;DHT22;59997;53.300;-6.260;2024-02-15T09:53:46;12.71;90.68
71942;DHT22;59997;53.300;-6.260;2024-02-15T09:56:13;12.74;90.70
71942;DHT22;59997;53.300;-6.260;2024-02-15T09:58:39;12.75;90.81
71942;DHT22;59997;53.300;-6.260;2024-02-15T10:01:05;12.81;90.62
71942;DHT22;59997;53.300;-6.260;2024-02-15T10:03:37;12.89;90.20
71942;DHT22;59997;53.300;-6.260;2024-02-15T10:06:03;13.09;90.40
71942;DHT22;59997;53.300;-6.260;2024-02-15T10:08:29;13.24;89.87
71942;DHT22;59997;53.300;-6.260;2024-02-15T10:11:10;13.27;89.75
71942;DHT22;59997;53.300;-6.260;2024-02-15T10:13:36;13.34;89.55
71942;DHT22;59997;53.300;-6.260;2024-02-15T10:16:18;13.37;89.58
71942;DHT22;59997;53.300;-6.260;2024-02-15T10:18:45;13.40;89.31
71942;DHT22;59997;53.300;-6.260;2024-02-15T10:21:32;13.44;89.16
71942;DHT22;59997;53.300;-6.260;2024-02-15T10:24:07;13.47;89.13
71942;DHT22;59997;53.300;-6.260;2024-02-15T10:26:34;13.47;88.76
71942;DHT22;59997;53.300;-6.260;2024-02-15T10:29:10;13.47;88.84
71942;DHT22;59997;53.300;-6.260;2024-02-15T10:31:40;13.44;88.63
71942;DHT22;59997;53.300;-6.260;2024-02-15T10:34:17;13.48;88.73
71942;DHT22;59997;53.300;-6.260;2024-02-15T10:36:44;13.62;88.93
71942;DHT22;59997;53.300;-6.260;2024-02-15T10:39:14;13.64;88.64
71942;DHT22;59997;53.300;-6.260;2024-02-15T10:41:51;13.72;88.86
71942;DHT22;59997;53.300;-6.260;2024-02-15T10:44:25;13.95;88.87
71942;DHT22;59997;53.300;-6.260;2024-02-15T10:46:53;14.01;88.58
71942;DHT22;59997;53.300;-6.260;2024-02-15T10:49:24;13.92;88.31
71942;DHT22;59997;53.300;-6.260;2024-02-15T10:51:55;13.81;88.65
71942;DHT22;59997;53.300;-6.260;2024-02-15T10:54:46;13.74;88.68
71942;DHT22;59997;53.300;-6.260;2024-02-15T10:57:12;13.60;88.72
71942;DHT22;59997;53.300;-6.260;2024-02-15T10:59:57;13.51;89.23
71942;DHT22;59997;53.300;-6.260;2024-02-15T11:02:30;13.47;88.83
71942;DHT22;59997;53.300;-6.260;2024-02-15T11:05:01;13.54;88.80
71942;DHT22;59997;53.300;-6.260;2024-02-15T11:07:29;13.58;88.64
71942;DHT22;59997;53.300;-6.260;2024-02-15T11:09:56;13.75;88.69
71942;DHT22;59997;53.300;-6.260;2024-02-15T11:12:26;13.90;88.55
71942;DHT22;59997;53.300;-6.260;2024-02-15T11:14:52;13.77;88.40
71942;DHT22;59997;53.300;-6.260;2024-02-15T11:20:03;13.68;88.43
71942;DHT22;59997;53.300;-6.260;2024-02-15T11:22:34;13.71;88.58
71942;DHT22;59997;53.300;-6.260;2024-02-15T11:25:03;13.78;88.57
71942;DHT22;59997;53.300;-6.260;2024-02-15T11:27:36;13.75;88.56
71942;DHT22;59997;53.300;-6.260;2024-02-15T11:30:04;13.62;88.48
71942;DHT22;59997;53.300;-6.260;2024-02-15T11:35:24;14.02;88.59
71942;DHT22;59997;53.300;-6.260;2024-02-15T11:40:17;14.78;87.29
71942;DHT22;59997;53.300;-6.260;2024-02-15T11:42:46;14.69;87.55
71942;DHT22;59997;53.300;-6.260;2024-02-15T11:45:12;14.40;87.78
71942;DHT22;59997;53.300;-6.260;2024-02-15T11:47:39;14.01;88.22
71942;DHT22;59997;53.300;-6.260;2024-02-15T11:50:10;13.85;88.93
71942;DHT22;59997;53.300;-6.260;2024-02-15T11:53:03;13.68;88.73
71942;DHT22;59997;53.300;-6.260;2024-02-15T11:55:36;13.69;88.71
71942;DHT22;59997;53.300;-6.260;2024-02-15T11:58:02;14.12;88.29
71942;DHT22;59997;53.300;-6.260;2024-02-15T12:00:35;14.09;87.86
71942;DHT22;59997;53.300;-6.260;2024-02-15T12:03:19;14.01;87.62
71942;DHT22;59997;53.300;-6.260;2024-02-15T12:06:04;14.02;87.65
71942;DHT22;59997;53.300;-6.260;2024-02-15T12:08:50;14.06;87.94
71942;DHT22;59997;53.300;-6.260;2024-02-15T12:11:34;14.08;87.64
71942;DHT22;59997;53.300;-6.260;2024-02-15T12:14:18;14.23;87.81
71942;DHT22;59997;53.300;-6.260;2024-02-15T12:17:07;14.24;87.83
71942;DHT22;59997;53.300;-6.260;2024-02-15T12:19:54;14.10;87.96
71942;DHT22;59997;53.300;-6.260;2024-02-15T12:22:30;13.95;88.30
71942;DHT22;59997;53.300;-6.260;2024-02-15T12:24:58;13.87;88.50
71942;DHT22;59997;53.300;-6.260;2024-02-15T12:27:25;13.53;88.22
71942;DHT22;59997;53.300;-6.260;2024-02-15T12:29:56;13.61;88.73
71942;DHT22;59997;53.300;-6.260;2024-02-15T12:32:23;13.62;88.22
71942;DHT22;59997;53.300;-6.260;2024-02-15T12:34:50;13.83;88.32
71942;DHT22;59997;53.300;-6.260;2024-02-15T12:37:20;13.90;87.86
71942;DHT22;59997;53.300;-6.260;2024-02-15T12:39:47;13.79;87.77
71942;DHT22;59997;53.300;-6.260;2024-02-15T12:42:13;13.81;87.88
71942;DHT22;59997;53.300;-6.260;2024-02-15T12:44:43;13.61;87.64
71942;DHT22;59997;53.300;-6.260;2024-02-15T12:47:20;13.81;87.67
71942;DHT22;59997;53.300;-6.260;2024-02-15T12:49:48;14.14;87.11
71942;DHT22;59997;53.300;-6.260;2024-02-15T12:55:08;14.21;86.66
71942;DHT22;59997;53.300;-6.260;2024-02-15T12:57:33;14.17;86.80
71942;DHT22;59997;53.300;-6.260;2024-02-15T12:59:59;14.41;87.43
71942;DHT22;59997;53.300;-6.260;2024-02-15T13:02:25;14.19;86.20
71942;DHT22;59997;53.300;-6.260;2024-02-15T13:04:57;14.31;86.37
71942;DHT22;59997;53.300;-6.260;2024-02-15T13:07:23;14.28;86.03
71942;DHT22;59997;53.300;-6.260;2024-02-15T13:09:48;14.33;86.75
71942;DHT22;59997;53.300;-6.260;2024-02-15T13:12:14;14.44;86.18
71942;DHT22;59997;53.300;-6.260;2024-02-15T13:14:40;14.40;86.48
71942;DHT22;59997;53.300;-6.260;2024-02-15T13:17:05;14.45;86.10
71942;DHT22;59997;53.300;-6.260;2024-02-15T13:19:31;14.71;85.83
71942;DHT22;59997;53.300;-6.260;2024-02-15T13:21:59;14.75;85.02
71942;DHT22;59997;53.300;-6.260;2024-02-15T13:24:25;14.60;84.72
71942;DHT22;59997;53.300;-6.260;2024-02-15T13:26:51;14.72;84.73
71942;DHT22;59997;53.300;-6.260;2024-02-15T13:29:17;14.79;85.34
71942;DHT22;59997;53.300;-6.260;2024-02-15T13:31:42;14.61;84.70
71942;DHT22;59997;53.300;-6.260;2024-02-15T13:34:09;14.37;85.28
71942;DHT22;59997;53.300;-6.260;2024-02-15T13:36:37;14.31;85.18
71942;DHT22;59997;53.300;-6.260;2024-02-15T13:39:03;14.44;85.50
71942;DHT22;59997;53.300;-6.260;2024-02-15T13:41:30;14.45;86.11
71942;DHT22;59997;53.300;-6.260;2024-02-15T13:43:55;14.42;85.38
71942;DHT22;59997;53.300;-6.260;2024-02-15T13:46:21;14.51;85.35
71942;DHT22;59997;53.300;-6.260;2024-02-15T13:48:46;14.71;85.23
71942;DHT22;59997;53.300;-6.260;2024-02-15T13:51:12;14.86;85.17
71942;DHT22;59997;53.300;-6.260;2024-02-15T13:53:37;14.64;84.66
71942;DHT22;59997;53.300;-6.260;2024-02-15T13:56:03;14.57;84.77
71942;DHT22;59997;53.300;-6.260;2024-02-15T13:58:30;14.61;85.10
71942;DHT22;59997;53.300;-6.260;2024-02-15T14:00:56;14.61;84.72
71942;DHT22;59997;53.300;-6.260;2024-02-15T14:03:22;14.54;85.24
71942;DHT22;59997;53.300;-6.260;2024-02-15T14:05:49;14.58;85.03
71942;DHT22;59997;53.300;-6.260;2024-02-15T14:08:15;14.58;85.20
71942;DHT22;59997;53.300;-6.260;2024-02-15T14:10:41;14.51;86.03
71942;DHT22;59997;53.300;-6.260;2024-02-15T14:13:06;14.60;85.18
71942;DHT22;59997;53.300;-6.260;2024-02-15T14:15:37;14.54;84.91
71942;DHT22;59997;53.300;-6.260;2024-02-15T14:18:04;14.48;85.01
71942;DHT22;59997;53.300;-6.260;2024-02-15T14:20:30;14.41;84.69
71942;DHT22;59997;53.300;-6.260;2024-02-15T14:22:56;14.49;84.84
71942;DHT22;59997;53.300;-6.260;2024-02-15T14:25:22;14.55;84.90
71942;DHT22;59997;53.300;-6.260;2024-02-15T14:27:48;14.65;84.68
71942;DHT22;59997;53.300;-6.260;2024-02-15T14:30:14;14.90;84.78
71942;DHT22;59997;53.300;-6.260;2024-02-15T14:32:58;14.78;84.39
71942;DHT22;59997;53.300;-6.260;2024-02-15T14:35:31;14.68;84.49
71942;DHT22;59997;53.300;-6.260;2024-02-15T14:38:10;14.65;84.57
71942;DHT22;59997;53.300;-6.260;2024-02-15T14:43:04;14.40;85.03
71942;DHT22;59997;53.300;-6.260;2024-02-15T14:45:33;14.30;84.92
71942;DHT22;59997;53.300;-6.260;2024-02-15T14:47:59;14.37;85.15
71942;DHT22;59997;53.300;-6.260;2024-02-15T14:50:25;14.37;85.24
71942;DHT22;59997;53.300;-6.260;2024-02-15T14:52:51;14.45;85.22
71942;DHT22;59997;53.300;-6.260;2024-02-15T14:55:18;14.34;85.43
71942;DHT22;59997;53.300;-6.260;2024-02-15T14:57:44;14.09;85.65
71942;DHT22;59997;53.300;-6.260;2024-02-15T15:00:11;14.02;86.04
71942;DHT22;59997;53.300;-6.260;2024-02-15T15:02:46;13.87;86.40
71942;DHT22;59997;53.300;-6.260;2024-02-15T15:05:12;13.79;86.66
71942;DHT22;59997;53.300;-6.260;2024-02-15T15:07:57;13.74;86.79
71942;DHT22;59997;53.300;-6.260;2024-02-15T15:10:41;13.82;86.62
71942;DHT22;59997;53.300;-6.260;2024-02-15T15:13:25;13.62;86.34
71942;DHT22;59997;53.300;-6.260;2024-02-15T15:15:51;13.64;86.53
71942;DHT22;59997;53.300;-6.260;2024-02-15T15:18:17;13.67;86.36
71942;DHT22;59997;53.300;-6.260;2024-02-15T15:20:44;13.64;86.05
71942;DHT22;59997;53.300;-6.260;2024-02-15T15:23:09;13.64;85.93
71942;DHT22;59997;53.300;-6.260;2024-02-15T15:25:35;13.61;85.87
71942;DHT22;59997;53.300;-6.260;2024-02-15T15:28:03;13.67;85.61
71942;DHT22;59997;53.300;-6.260;2024-02-15T15:30:32;13.69;85.93
71942;DHT22;59997;53.300;-6.260;2024-02-15T15:32:58;13.61;85.70
71942;DHT22;59997;53.300;-6.260;2024-02-15T15:35:26;13.62;85.54